createdAt,value
2022-12-14T00:01:49.598Z,22.20
2022-12-14T00:04:17.290Z,22.80
2022-12-14T00:06:44.996Z,22.90
2022-12-14T00:09:12.100Z,26.20
2022-12-14T00:11:39.540Z,32.60
2022-12-14T00:14:06.890Z,40.50
2022-12-14T00:16:35.179Z,35.50
2022-12-14T00:19:02.938Z,35.10
2022-12-14T00:21:30.313Z,39.20
2022-12-14T00:23:59.367Z,42.40
2022-12-14T00:26:31.774Z,45.30
2022-12-14T00:29:00.539Z,43.30
2022-12-14T00:31:28.879Z,39.70
2022-12-14T00:33:55.878Z,37.40
2022-12-14T00:36:25.731Z,33.80
2022-12-14T00:38:52.755Z,31.60
2022-12-14T00:41:20.068Z,35.00
2022-12-14T00:43:49.697Z,34.80
2022-12-14T00:46:17.737Z,33.40
2022-12-14T00:48:45.258Z,36.00
2022-12-14T00:51:14.786Z,39.10
2022-12-14T00:53:43.863Z,50.00
2022-12-14T00:56:11.658Z,56.80
2022-12-14T00:58:38.791Z,57.60
2022-12-14T01:01:09.969Z,62.50
2022-12-14T01:03:37.137Z,62.50
2022-12-14T01:06:04.653Z,67.50
2022-12-14T01:08:35.894Z,68.10
2022-12-14T01:11:05.986Z,64.80
2022-12-14T01:13:33.136Z,68.30
2022-12-14T01:16:20.012Z,68.80
2022-12-14T01:18:47.081Z,67.70
2022-12-14T01:21:17.858Z,65.00
2022-12-14T01:23:46.194Z,63.00
2022-12-14T01:26:16.498Z,66.70
2022-12-14T01:28:44.648Z,68.60
2022-12-14T01:31:17.740Z,67.10
2022-12-14T01:33:45.707Z,67.40
2022-12-14T01:36:16.273Z,67.60
2022-12-14T01:38:44.161Z,69.90
2022-12-14T01:41:24.404Z,76.00
2022-12-14T01:43:57.475Z,76.00
2022-12-14T01:46:45.579Z,73.50
2022-12-14T01:49:42.115Z,76.60
2022-12-14T01:52:27.794Z,74.90
2022-12-14T01:55:06.667Z,79.00
2022-12-14T01:57:42.261Z,82.70
2022-12-14T02:00:13.251Z,83.10
2022-12-14T02:03:05.250Z,80.70
2022-12-14T02:05:34.927Z,80.40
2022-12-14T02:08:03.600Z,77.80
2022-12-14T02:10:32.502Z,76.60
2022-12-14T02:13:16.279Z,76.80
2022-12-14T02:15:44.118Z,76.20
2022-12-14T02:18:22.458Z,77.00
2022-12-14T02:20:59.471Z,77.50
2022-12-14T02:23:51.660Z,78.30
2022-12-14T02:26:37.490Z,78.40
2022-12-14T02:29:24.401Z,80.60
2022-12-14T02:32:11.078Z,85.20
2022-12-14T02:35:04.014Z,84.70
2022-12-14T02:38:04.453Z,84.60
2022-12-14T02:40:38.598Z,85.30
2022-12-14T02:43:17.845Z,86.40
2022-12-14T02:46:06.231Z,86.30
2022-12-14T02:48:41.868Z,87.60
2022-12-14T02:51:24.193Z,84.30
2022-12-14T02:54:14.470Z,85.10
2022-12-14T02:56:50.059Z,85.10
2022-12-14T02:59:18.526Z,82.80
2022-12-14T03:01:47.931Z,82.70
2022-12-14T03:04:16.204Z,83.10
2022-12-14T03:06:57.981Z,81.50
2022-12-14T03:09:27.389Z,78.00
2022-12-14T03:12:13.555Z,78.60
2022-12-14T03:14:48.186Z,75.70
2022-12-14T03:17:19.994Z,73.30
2022-12-14T03:20:00.546Z,73.90
2022-12-14T03:22:33.883Z,77.20
2022-12-14T03:25:08.744Z,78.80
2022-12-14T03:27:53.412Z,77.10
2022-12-14T03:30:44.000Z,75.20
2022-12-14T03:33:15.679Z,75.20
2022-12-14T03:35:49.533Z,75.70
2022-12-14T03:38:24.267Z,74.30
2022-12-14T03:41:13.758Z,73.00
2022-12-14T03:44:05.055Z,71.10
2022-12-14T03:46:57.178Z,71.40
2022-12-14T03:49:56.962Z,71.30
2022-12-14T03:52:43.717Z,71.70
2022-12-14T03:55:43.674Z,70.10
2022-12-14T03:58:52.423Z,69.20
2022-12-14T04:01:25.881Z,65.70
2022-12-14T04:04:03.542Z,64.30
2022-12-14T04:06:49.236Z,71.40
2022-12-14T04:09:26.109Z,72.70
2022-12-14T04:12:36.616Z,73.50
2022-12-14T04:15:28.579Z,73.30
2022-12-14T04:18:20.099Z,72.40
2022-12-14T04:20:55.339Z,68.40
2022-12-14T04:23:52.907Z,64.40
2022-12-14T04:26:27.242Z,66.60
2022-12-14T04:29:21.008Z,67.20
2022-12-14T04:31:56.589Z,63.70
2022-12-14T04:34:26.400Z,58.90
2022-12-14T04:36:56.738Z,57.00
2022-12-14T04:39:42.706Z,59.90
2022-12-14T04:42:13.449Z,63.40
2022-12-14T04:44:46.998Z,62.80
2022-12-14T04:47:15.593Z,59.40
2022-12-14T04:50:25.657Z,59.70
2022-12-14T04:52:59.695Z,63.20
2022-12-14T04:55:41.641Z,63.10
2022-12-14T04:58:21.296Z,63.50
2022-12-14T05:01:12.840Z,68.40
2022-12-14T05:03:54.377Z,75.40
2022-12-14T05:06:44.423Z,78.00
2022-12-14T05:09:42.689Z,78.20
2022-12-14T05:12:38.515Z,80.30
2022-12-14T05:15:10.882Z,82.00
2022-12-14T05:17:40.339Z,82.90
2022-12-14T05:20:16.044Z,84.90
2022-12-14T05:22:45.621Z,86.00
2022-12-14T05:25:12.794Z,87.00
2022-12-14T05:27:40.222Z,88.80
2022-12-14T05:30:08.243Z,90.20
2022-12-14T05:32:35.706Z,88.90
2022-12-14T05:35:03.599Z,90.80
2022-12-14T05:37:31.088Z,91.00
2022-12-14T05:39:58.090Z,91.40
2022-12-14T05:42:25.519Z,91.00
2022-12-14T05:44:52.487Z,90.90
2022-12-14T05:47:19.729Z,88.90
2022-12-14T05:49:46.700Z,86.50
2022-12-14T05:52:17.529Z,85.40
2022-12-14T05:54:44.632Z,84.90
2022-12-14T05:57:12.965Z,84.00
2022-12-14T05:59:40.005Z,83.50
2022-12-14T06:02:08.106Z,82.20
2022-12-14T06:04:35.621Z,83.10
2022-12-14T06:07:03.192Z,87.00
2022-12-14T06:09:30.313Z,84.30
2022-12-14T06:11:57.834Z,84.60
2022-12-14T06:14:27.806Z,88.20
2022-12-14T06:16:55.223Z,86.40
2022-12-14T06:19:22.318Z,86.70
2022-12-14T06:21:51.705Z,87.60
2022-12-14T06:24:19.336Z,81.70
2022-12-14T06:26:46.850Z,76.60
2022-12-14T06:29:18.181Z,74.90
2022-12-14T06:31:49.509Z,74.40
2022-12-14T06:34:19.216Z,69.90
2022-12-14T06:36:48.002Z,67.20
2022-12-14T06:39:17.034Z,66.60
2022-12-14T06:41:44.579Z,65.60
2022-12-14T06:44:14.874Z,66.40
2022-12-14T06:46:57.159Z,65.90
2022-12-14T06:49:37.524Z,68.10
2022-12-14T06:52:06.651Z,71.30
2022-12-14T06:54:34.231Z,76.00
2022-12-14T06:57:23.594Z,76.90
2022-12-14T06:59:50.748Z,83.00
2022-12-14T07:02:18.754Z,86.70
2022-12-14T07:04:46.034Z,83.10
2022-12-14T07:07:13.798Z,80.30
2022-12-14T07:09:40.965Z,79.60
2022-12-14T07:12:14.923Z,79.10
2022-12-14T07:14:42.308Z,79.40
2022-12-14T07:17:09.963Z,79.30
2022-12-14T07:19:37.248Z,79.50
2022-12-14T07:22:05.104Z,79.20
2022-12-14T07:24:32.580Z,76.10
2022-12-14T07:27:00.582Z,73.60
2022-12-14T07:29:34.073Z,69.70
2022-12-14T07:32:02.380Z,69.00
2022-12-14T07:34:29.706Z,71.80
2022-12-14T07:36:58.576Z,73.50
2022-12-14T07:40:09.172Z,72.80
2022-12-14T07:42:42.489Z,69.00
2022-12-14T07:45:13.033Z,70.00
2022-12-14T07:47:43.025Z,63.40
2022-12-14T07:50:10.988Z,52.10
2022-12-14T07:52:38.817Z,52.60
2022-12-14T07:55:06.879Z,54.30
2022-12-14T07:57:59.333Z,51.50
2022-12-14T08:00:26.427Z,59.10
2022-12-14T08:02:55.657Z,59.60
2022-12-14T08:05:22.921Z,54.00
2022-12-14T08:07:50.203Z,55.70
2022-12-14T08:10:17.318Z,56.80
2022-12-14T08:12:51.978Z,55.80
2022-12-14T08:15:49.971Z,52.30
2022-12-14T08:18:32.097Z,51.30
2022-12-14T08:21:17.514Z,52.10
2022-12-14T08:23:44.823Z,56.30
2022-12-14T08:29:00.441Z,52.90
2022-12-14T08:31:30.585Z,52.90
2022-12-14T08:34:02.012Z,54.10
2022-12-14T08:36:34.136Z,48.20
2022-12-14T08:39:05.435Z,41.10
2022-12-14T08:41:33.018Z,31.40
2022-12-14T08:44:02.867Z,25.60
2022-12-14T08:46:32.119Z,26.30
2022-12-14T08:49:00.376Z,33.90
2022-12-14T08:51:28.837Z,27.50
2022-12-14T08:53:57.177Z,28.00
2022-12-14T08:56:28.282Z,22.60
